D/T METAR WX W/SPE G/SPE TEMP DEWP FEEL
31/01/23 12:50 EGJJ 311250Z 25016KT 9999 FEW007 SCT009 09/08 Q1029 18.4mph 9°C 8°C 9.4°C
31/01/23 12:20 EGJJ 311220Z 25017KT 9999 FEW007 BKN011 09/08 Q1030 19.6mph 9°C 8°C 9.4°C
31/01/23 07:50 EGJJ 310750Z 27011KT 9999 FEW018 08/05 Q1029 12.7mph 8°C 5°C 7.3°C
31/01/23 06:50 EGJJ 310650Z 28008KT 9999 SCT020 07/03 Q1029 9.2mph 7°C 3°C 5.7°C
31/01/23 05:50 EGJJ 310550Z AUTO 29009KT 260V320 9999 OVC023/// 08/04 Q1029 10.4mph 8°C 4°C 7.0°C
31/01/23 04:50 EGJJ 310450Z AUTO 29010KT 9999 OVC024/// 08/04 Q1029 11.5mph 8°C 4°C 7.0°C
30/01/23 22:20 EGJJ 302220Z AUTO 30003KT 9999 OVC028/// 07/03 Q1030 3.5mph 7°C 3°C 5.7°C
30/01/23 13:20 EGJJ 301320Z 33009KT 290V010 9999 FEW004 SCT030 09/07 Q1028 10.4mph 9°C 7°C 9.0°C
30/01/23 12:20 EGJJ 301220Z 34008KT 290V020 9999 FEW009 09/08 Q1028 9.2mph 9°C 8°C 9.4°C
30/01/23 11:20 EGJJ 301120Z 35008KT 300V020 9999 FEW009 10/09 Q1028 9.2mph 10°C 9°C 10.8°C
30/01/23 10:50 EGJJ 301050Z 33008KT 290V020 9999 FEW008 SCT031 10/09 Q1028 9.2mph 10°C 9°C 10.8°C
30/01/23 10:20 EGJJ 301020Z 32007KT 290V360 9999 FEW008 10/10 Q1028 8.1mph 10°C 10°C 11.3°C
30/01/23 07:50 EGJJ 300750Z 28007KT 9999 SCT006 SCT008 BKN023 09/09 Q1027 8.1mph 9°C 9°C 9.8°C
09/01/23 06:20 EGJJ 090620Z 28021G32KT 9999 FEW024 BKN028 08/05 Q1001 24.2mph 36.8mph 8°C 5°C 7.3°C
09/01/23 05:50 EGJJ 090550Z 28023G37KT 9999 VCSH FEW031 08/05 Q1001 VCSH 26.5mph 42.6mph 8°C 5°C 7.3°C
09/01/23 05:20 EGJJ 090520Z AUTO 28024G39KT 250V310 9999 FEW023/// SCT028/// 08/05 Q1001 RESHRA 27.6mph 44.9mph 8°C 5°C 7.3°C
09/01/23 04:50 EGJJ 090450Z AUTO 28023G33KT 9999 FEW025/// SCT030/// 09/05 Q1000 RESHRA 26.5mph 38.0mph 9°C 5°C 8.3°C
09/01/23 04:20 EGJJ 090420Z AUTO 29022G37KT 260V320 6000 FEW016/// BKN021/// BKN024/// 08/05 Q1000 RESHRA 25.3mph 42.6mph 8°C 5°C 7.3°C
09/01/23 03:50 EGJJ 090350Z AUTO 28020G34KT 250V320 9999 FEW010/// SCT047/// 08/05 Q0999 RESHSN 23.0mph 39.1mph 8°C 5°C 7.3°C
09/01/23 03:20 EGJJ 090320Z AUTO 27023G34KT 240V300 9999 FEW025/// SCT028/// BKN033/// 09/05 Q0999 RESHRA 26.5mph 39.1mph 9°C 5°C 8.3°C
09/01/23 02:50 EGJJ 090250Z AUTO 27024G41KT 9999 FEW026/// 08/05 Q0998 RESHRA 27.6mph 47.2mph 8°C 5°C 7.3°C
09/01/23 02:20 EGJJ 090220Z AUTO 27024G35KT 9999 -SHRA FEW025/// 08/05 Q0998 RESHRA -SHRA 27.6mph 40.3mph 8°C 5°C 7.3°C
09/01/23 01:20 EGJJ 090120Z AUTO 28023G46KT 250V310 8000 FEW021/// SCT028/// BKN044/// 08/06 Q0997 RESHRA 26.5mph 52.9mph 8°C 6°C 7.6°C
09/01/23 00:50 EGJJ 090050Z AUTO 27024G36KT 9999 SCT022/// OVC025/// 09/07 Q0997 RESHRA 27.6mph 41.4mph 9°C 7°C 9.0°C
09/01/23 00:20 EGJJ 090020Z AUTO 27025G38KT 9999 FEW018/// SCT023/// BKN026/// 10/07 Q0996 RESHRA 28.8mph 43.7mph 10°C 7°C 10.0°C
08/01/23 23:50 EGJJ 082350Z AUTO 26024G35KT 9999 FEW025/// 08/06 Q0996 RESHRA 27.6mph 40.3mph 8°C 6°C 7.6°C
08/01/23 23:20 EGJJ 082320Z AUTO 27023G35KT 9999 FEW021/// SCT048/// 08/06 Q0996 RESHRA 26.5mph 40.3mph 8°C 6°C 7.6°C
08/01/23 22:50 EGJJ 082250Z 26025G38KT 9999 VCSH FEW015CB SCT027 10/07 Q0995 VCSH 28.8mph 43.7mph 10°C 7°C 10.0°C
08/01/23 22:20 EGJJ 082220Z 26025G39KT 9999 -SHRA FEW015CB SCT025 08/06 Q0995 RESHRA -SHRA 28.8mph 44.9mph 8°C 6°C 7.6°C
08/01/23 21:50 EGJJ 082150Z 26029G44KT 9999 VCSH FEW012 SCT015CB 10/08 Q0994 RESHRA VCSH 33.4mph 50.6mph 10°C 8°C 10.4°C
08/01/23 20:20 EGJJ 082020Z 23026G44KT 9999 VCSH FEW010 SCT015CB 08/06 Q0994 VCSH 29.9mph 50.6mph 8°C 6°C 7.6°C
08/01/23 19:20 EGJJ 081920Z 23022G35KT 9999 -SHRA FEW010 FEW015CB SCT025 08/06 Q0995 -SHRA 25.3mph 40.3mph 8°C 6°C 7.6°C
08/01/23 18:50 EGJJ 081850Z 24020KT 9999 VCSH FEW023 08/05 Q0995 VCSH 23.0mph 8°C 5°C 7.3°C
08/01/23 18:20 EGJJ 081820Z 24021KT 200V260 9999 SCT023 09/05 Q0995 24.2mph 9°C 5°C 8.3°C
08/01/23 17:50 EGJJ 081750Z 25023KT 9999 VCSH FEW015CB SCT030 09/06 Q0995 VCSH 26.5mph 9°C 6°C 8.6°C
08/01/23 17:20 EGJJ 081720Z 24021G32KT 9999 VCSH FEW012 FEW015CB 08/05 Q0995 VCSH 24.2mph 36.8mph 8°C 5°C 7.3°C
08/01/23 16:50 EGJJ 081650Z 25024G34KT 9999 VCSH FEW012 FEW015CB 09/06 Q0994 VCSH 27.6mph 39.1mph 9°C 6°C 8.6°C
08/01/23 16:20 EGJJ 081620Z 27021KT 230V290 9999 VCSH FEW010 SCT015CB 08/06 Q0994 VCSH 24.2mph 8°C 6°C 7.6°C
08/01/23 15:50 EGJJ 081550Z 24022KT 9999 VCSH FEW010 FEW015CB SCT022 08/07 Q0994 VCSH 25.3mph 8°C 7°C 8.0°C
08/01/23 15:20 EGJJ 081520Z 23017G28KT 9999 VCSH FEW015CB SCT021 08/07 Q0993 VCSH 19.6mph 32.2mph 8°C 7°C 8.0°C
08/01/23 14:20 EGJJ 081420Z 23019G29KT 9999 VCSH FEW008 FEW015CB SCT025 07/06 Q0993 RESHRA VCSH 21.9mph 33.4mph 7°C 6°C 6.6°C
08/01/23 13:50 EGJJ 081350Z 25023G33KT 5000 -SHRA BR SCT008 SCT012CB BKN014 07/05 Q0994 -SHRA BR 26.5mph 38.0mph 7°C 5°C 6.3°C
08/01/23 13:20 EGJJ 081320Z 22017G27KT 180V240 9999 VCSH FEW015CB SCT040 09/07 Q0994 VCSH 19.6mph 31.1mph 9°C 7°C 9.0°C
08/01/23 12:50 EGJJ 081250Z 21019KT 9999 VCSH FEW015CB SCT037 09/06 Q0994 VCSH 21.9mph 9°C 6°C 8.6°C
08/01/23 12:20 EGJJ 081220Z 22020G31KT 9999 -RA FEW015CB BKN028 09/07 Q0995 -RA 23.0mph 35.7mph 9°C 7°C 9.0°C
08/01/23 11:50 EGJJ 081150Z 21019KT 170V240 9999 VCSH FEW015CB 10/07 Q0995 VCSH 21.9mph 10°C 7°C 10.0°C
08/01/23 11:20 EGJJ 081120Z 21018G31KT 9999 FEW017CB 10/08 Q0996 20.7mph 35.7mph 10°C 8°C 10.4°C
08/01/23 10:50 EGJJ 081050Z 20020G30KT 9999 FEW014CB 10/07 Q0996 23.0mph 34.5mph 10°C 7°C 10.0°C
08/01/23 10:20 EGJJ 081020Z 20022G35KT 9999 FEW017CB 10/07 Q0996 25.3mph 40.3mph 10°C 7°C 10.0°C
08/01/23 09:50 EGJJ 080950Z 20020G30KT 170V230 9999 FEW020CB 10/07 Q0996 23.0mph 34.5mph 10°C 7°C 10.0°C
08/01/23 09:20 EGJJ 080920Z 19019KT 9999 FEW013 09/07 Q0997 21.9mph 9°C 7°C 9.0°C
08/01/23 08:50 EGJJ 080850Z 20016KT 9999 FEW017 09/07 Q0997 18.4mph 9°C 7°C 9.0°C
08/01/23 08:20 EGJJ 080820Z 20018G28KT 9999 FEW012 09/07 Q0997 20.7mph 32.2mph 9°C 7°C 9.0°C
08/01/23 07:50 EGJJ 080750Z 20016G26KT 9999 FEW015 08/07 Q0997 18.4mph 29.9mph 8°C 7°C 8.0°C
08/01/23 07:20 EGJJ 080720Z 21015G28KT 160V240 9999 FEW016 08/07 Q0998 17.3mph 32.2mph 8°C 7°C 8.0°C
08/01/23 06:50 EGJJ 080650Z 20015G25KT 9999 FEW013 08/06 Q0998 17.3mph 28.8mph 8°C 6°C 7.6°C
08/01/23 06:20 EGJJ 080620Z 21016KT 9999 FEW022 08/06 Q0999 18.4mph 8°C 6°C 7.6°C
08/01/23 05:50 EGJJ 080550Z 21016KT 9999 FEW017 08/06 Q0999 18.4mph 8°C 6°C 7.6°C
08/01/23 05:20 EGJJ 080520Z AUTO 22017KT 9999 FEW017/// SCT021/// 08/06 Q0999 RERA 19.6mph 8°C 6°C 7.6°C
08/01/23 04:50 EGJJ 080450Z AUTO 22019KT 190V250 9999 FEW020/// 09/07 Q0999 21.9mph 9°C 7°C 9.0°C
08/01/23 04:20 EGJJ 080420Z AUTO 22018KT 9999 SCT029/// 08/06 Q0999 20.7mph 8°C 6°C 7.6°C
08/01/23 03:50 EGJJ 080350Z AUTO 22017KT 9999 FEW032/// 09/06 Q1000 19.6mph 9°C 6°C 8.6°C
08/01/23 03:20 EGJJ 080320Z AUTO 22019KT 9999 NCD 08/06 Q1000 21.9mph 8°C 6°C 7.6°C
08/01/23 02:50 EGJJ 080250Z AUTO 22018G29KT 9999 NCD 08/06 Q1000 20.7mph 33.4mph 8°C 6°C 7.6°C
08/01/23 02:20 EGJJ 080220Z AUTO 22019KT 9999 NCD 08/06 Q1000 21.9mph 8°C 6°C 7.6°C
08/01/23 01:50 EGJJ 080150Z AUTO 22018KT 9999 NCD 08/06 Q1000 20.7mph 8°C 6°C 7.6°C
08/01/23 01:20 EGJJ 080120Z AUTO 22018KT 9999 FEW019/// SCT022/// 08/06 Q1000 20.7mph 8°C 6°C 7.6°C
08/01/23 00:20 EGJJ 080020Z AUTO 21015KT 9999 FEW036/// 08/06 Q1001 17.3mph 8°C 6°C 7.6°C
07/01/23 23:50 EGJJ 072350Z AUTO 21017KT 180V240 9999 FEW021/// 08/06 Q1001 19.6mph 8°C 6°C 7.6°C
07/01/23 23:20 EGJJ 072320Z AUTO 21017G28KT 180V240 9999 NCD 09/06 Q1001 19.6mph 32.2mph 9°C 6°C 8.6°C
07/01/23 22:50 EGJJ 072250Z AUTO 21017G27KT 180V240 9999 NCD 09/06 Q1001 19.6mph 31.1mph 9°C 6°C 8.6°C
07/01/23 22:20 EGJJ 072220Z AUTO 22017G27KT 9999 SCT032/// 09/06 Q1001 19.6mph 31.1mph 9°C 6°C 8.6°C
07/01/23 21:50 EGJJ 072150Z AUTO 22016KT 9999 NCD 09/06 Q1002 18.4mph 9°C 6°C 8.6°C
07/01/23 21:20 EGJJ 072120Z AUTO 22018G28KT 9999 BKN035/// BKN040/// 09/06 Q1002 20.7mph 32.2mph 9°C 6°C 8.6°C
07/01/23 20:50 EGJJ 072050Z 22017KT 9999 FEW024 09/06 Q1002 19.6mph 9°C 6°C 8.6°C
07/01/23 20:20 EGJJ 072020Z 22016KT 190V250 9999 FEW036 09/06 Q1002 18.4mph 9°C 6°C 8.6°C
07/01/23 19:50 EGJJ 071950Z 23017G28KT 9999 FEW034 09/06 Q1002 19.6mph 32.2mph 9°C 6°C 8.6°C
07/01/23 19:20 EGJJ 071920Z 23020G31KT 9999 FEW025 09/06 Q1001 23.0mph 35.7mph 9°C 6°C 8.6°C
07/01/23 18:50 EGJJ 071850Z 23020KT 9999 FEW025 09/06 Q1002 23.0mph 9°C 6°C 8.6°C
07/01/23 18:20 EGJJ 071820Z 23023G35KT 9999 FEW025 09/06 Q1001 26.5mph 40.3mph 9°C 6°C 8.6°C
07/01/23 17:50 EGJJ 071750Z 23020G32KT 9999 FEW025 09/06 Q1001 23.0mph 36.8mph 9°C 6°C 8.6°C
07/01/23 17:20 EGJJ 071720Z 25025G35KT 9999 -RA FEW021 SCT029 09/06 Q1001 -RA 28.8mph 40.3mph 9°C 6°C 8.6°C
07/01/23 16:50 EGJJ 071650Z 23023KT 200V260 9999 FEW015CB 10/07 Q1001 26.5mph 10°C 7°C 10.0°C
07/01/23 16:20 EGJJ 071620Z 23024G35KT 9999 FEW015CB 10/07 Q1000 27.6mph 40.3mph 10°C 7°C 10.0°C
07/01/23 15:50 EGJJ 071550Z 22021KT 190V250 9999 FEW018 11/08 Q1000 24.2mph 11°C 8°C 11.4°C
07/01/23 15:20 EGJJ 071520Z 22019G30KT 9999 VCSH FEW018 11/08 Q0999 VCSH 21.9mph 34.5mph 11°C 8°C 11.4°C
07/01/23 14:50 EGJJ 071450Z 21014KT 9999 BKN035 12/09 Q0999 16.1mph 12°C 9°C 12.8°C
07/01/23 14:20 EGJJ 071420Z 21017G29KT 180V240 9999 FEW033 12/10 Q1000 19.6mph 33.4mph 12°C 10°C 13.3°C
07/01/23 13:50 EGJJ 071350Z 20016KT 170V230 9999 FEW035 12/10 Q0999 18.4mph 12°C 10°C 13.3°C
07/01/23 12:50 EGJJ 071250Z 21016G26KT 9999 FEW027 12/11 Q1000 18.4mph 29.9mph 12°C 11°C 13.8°C
07/01/23 12:20 EGJJ 071220Z 20015KT 9999 FEW023 SCT027 12/11 Q1001 17.3mph 12°C 11°C 13.8°C
07/01/23 11:50 EGJJ 071150Z 19015KT 160V220 9999 FEW015 SCT018 12/11 Q1001 17.3mph 12°C 11°C 13.8°C
07/01/23 11:20 EGJJ 071120Z 19016G27KT 9999 VCSH FEW007 SCT015 BKN020 11/11 Q1001 VCSH 18.4mph 31.1mph 11°C 11°C 12.8°C
07/01/23 10:50 EGJJ 071050Z 18013G24KT 150V210 9999 VCSH FEW005 SCT013 BKN020 11/11 Q1001 VCSH 15.0mph 27.6mph 11°C 11°C 12.8°C
07/01/23 10:20 EGJJ 071020Z 17018G31KT 140V210 9999 VCSH FEW004 BKN005 11/10 Q1001 VCSH 20.7mph 35.7mph 11°C 10°C 12.3°C
07/01/23 09:50 EGJJ 070950Z 17019G29KT 140V200 4000 DZ FEW003 BKN004 10/10 Q1001 DZ 21.9mph 33.4mph 10°C 10°C 11.3°C